sensor_id;sensor_type;location;lat;lon;timestamp;temperature;humidity
20487;DHT22;10402;49.012;8.370;2023-03-11T00:00:18;5.80;74.90
20487;DHT22;10402;49.012;8.370;2023-03-11T00:02:45;5.70;75.00
20487;DHT22;10402;49.012;8.370;2023-03-11T00:05:35;5.80;75.10
20487;DHT22;10402;49.012;8.370;2023-03-11T00:08:02;5.90;75.10
20487;DHT22;10402;49.012;8.370;2023-03-11T00:10:31;5.80;74.90
20487;DHT22;10402;49.012;8.370;2023-03-11T00:12:58;5.80;75.00
20487;DHT22;10402;49.012;8.370;2023-03-11T00:15:25;5.80;75.20
20487;DHT22;10402;49.012;8.370;2023-03-11T00:17:51;5.80;75.20
20487;DHT22;10402;49.012;8.370;2023-03-11T00:20:29;5.80;75.40
20487;DHT22;10402;49.012;8.370;2023-03-11T00:22:55;5.80;76.00
20487;DHT22;10402;49.012;8.370;2023-03-11T00:25:22;5.80;75.30
20487;DHT22;10402;49.012;8.370;2023-03-11T00:27:48;5.80;75.40
20487;DHT22;10402;49.012;8.370;2023-03-11T00:30:16;5.80;75.30
20487;DHT22;10402;49.012;8.370;2023-03-11T00:32:42;5.80;75.20
20487;DHT22;10402;49.012;8.370;2023-03-11T00:35:11;5.70;75.30
20487;DHT22;10402;49.012;8.370;2023-03-11T00:37:37;5.70;75.60
20487;DHT22;10402;49.012;8.370;2023-03-11T00:40:03;5.70;75.90
20487;DHT22;10402;49.012;8.370;2023-03-11T00:42:33;5.70;76.10
20487;DHT22;10402;49.012;8.370;2023-03-11T00:44:59;5.70;76.20
20487;DHT22;10402;49.012;8.370;2023-03-11T00:47:24;5.60;76.10
20487;DHT22;10402;49.012;8.370;2023-03-11T00:49:50;5.60;76.10
20487;DHT22;10402;49.012;8.370;2023-03-11T00:52:15;5.60;76.10
20487;DHT22;10402;49.012;8.370;2023-03-11T00:54:41;5.60;76.10
20487;DHT22;10402;49.012;8.370;2023-03-11T00:57:06;5.60;75.40
20487;DHT22;10402;49.012;8.370;2023-03-11T00:59:33;5.50;75.60
20487;DHT22;10402;49.012;8.370;2023-03-11T01:01:59;5.40;75.50
20487;DHT22;10402;49.012;8.370;2023-03-11T01:04:25;5.30;75.80
20487;DHT22;10402;49.012;8.370;2023-03-11T01:06:50;5.30;75.50
20487;DHT22;10402;49.012;8.370;2023-03-11T01:09:16;5.30;75.50
20487;DHT22;10402;49.012;8.370;2023-03-11T01:11:41;5.30;75.50
20487;DHT22;10402;49.012;8.370;2023-03-11T01:14:07;5.40;75.40
20487;DHT22;10402;49.012;8.370;2023-03-11T01:16:32;5.30;75.20
20487;DHT22;10402;49.012;8.370;2023-03-11T01:18:58;5.40;75.30
20487;DHT22;10402;49.012;8.370;2023-03-11T01:21:23;5.40;75.30
20487;DHT22;10402;49.012;8.370;2023-03-11T01:23:49;5.40;74.60
20487;DHT22;10402;49.012;8.370;2023-03-11T01:28:44;5.20;74.00
20487;DHT22;10402;49.012;8.370;2023-03-11T01:31:10;5.10;74.50
20487;DHT22;10402;49.012;8.370;2023-03-11T01:33:35;5.10;74.10
20487;DHT22;10402;49.012;8.370;2023-03-11T01:36:01;5.10;74.10
20487;DHT22;10402;49.012;8.370;2023-03-11T01:38:27;5.10;73.90
20487;DHT22;10402;49.012;8.370;2023-03-11T01:40:52;5.00;73.60
20487;DHT22;10402;49.012;8.370;2023-03-11T01:43:39;5.00;73.20
20487;DHT22;10402;49.012;8.370;2023-03-11T01:46:17;5.00;73.50
20487;DHT22;10402;49.012;8.370;2023-03-11T01:48:50;4.90;73.30
20487;DHT22;10402;49.012;8.370;2023-03-11T01:51:28;4.90;73.10
20487;DHT22;10402;49.012;8.370;2023-03-11T01:53:56;4.80;73.10
20487;DHT22;10402;49.012;8.370;2023-03-11T01:56:24;4.80;72.90
20487;DHT22;10402;49.012;8.370;2023-03-11T01:58:51;4.80;72.60
20487;DHT22;10402;49.012;8.370;2023-03-11T02:01:19;4.80;72.40
20487;DHT22;10402;49.012;8.370;2023-03-11T02:03:45;4.80;72.50
20487;DHT22;10402;49.012;8.370;2023-03-11T02:06:14;4.80;72.50
20487;DHT22;10402;49.012;8.370;2023-03-11T02:08:40;4.80;72.70
20487;DHT22;10402;49.012;8.370;2023-03-11T02:11:10;4.90;72.50
20487;DHT22;10402;49.012;8.370;2023-03-11T02:13:36;4.90;72.00
20487;DHT22;10402;49.012;8.370;2023-03-11T02:16:04;4.80;72.10
20487;DHT22;10402;49.012;8.370;2023-03-11T02:18:30;4.80;72.40
20487;DHT22;10402;49.012;8.370;2023-03-11T02:21:24;4.80;72.50
20487;DHT22;10402;49.012;8.370;2023-03-11T02:24:04;4.80;72.50
20487;DHT22;10402;49.012;8.370;2023-03-11T02:26:48;4.80;72.00
20487;DHT22;10402;49.012;8.370;2023-03-11T02:29:14;4.70;72.00
20487;DHT22;10402;49.012;8.370;2023-03-11T02:31:41;4.70;72.20
20487;DHT22;10402;49.012;8.370;2023-03-11T02:34:13;4.70;72.40
20487;DHT22;10402;49.012;8.370;2023-03-11T02:36:41;4.60;72.30
20487;DHT22;10402;49.012;8.370;2023-03-11T02:39:08;4.60;72.30
20487;DHT22;10402;49.012;8.370;2023-03-11T02:41:36;4.60;73.00
20487;DHT22;10402;49.012;8.370;2023-03-11T02:44:04;4.60;72.20
20487;DHT22;10402;49.012;8.370;2023-03-11T02:46:32;4.50;72.10
20487;DHT22;10402;49.012;8.370;2023-03-11T02:48:58;4.60;72.50
20487;DHT22;10402;49.012;8.370;2023-03-11T02:51:24;4.60;72.50
20487;DHT22;10402;49.012;8.370;2023-03-11T02:53:53;4.60;72.40
20487;DHT22;10402;49.012;8.370;2023-03-11T02:56:20;4.60;72.40
20487;DHT22;10402;49.012;8.370;2023-03-11T02:58:46;4.60;72.60
20487;DHT22;10402;49.012;8.370;2023-03-11T03:01:12;4.60;72.60
20487;DHT22;10402;49.012;8.370;2023-03-11T03:03:38;4.60;72.70
20487;DHT22;10402;49.012;8.370;2023-03-11T03:06:04;4.50;72.40
20487;DHT22;10402;49.012;8.370;2023-03-11T03:08:30;4.60;72.70
20487;DHT22;10402;49.012;8.370;2023-03-11T03:10:55;4.60;72.70
20487;DHT22;10402;49.012;8.370;2023-03-11T03:13:21;4.60;72.70
20487;DHT22;10402;49.012;8.370;2023-03-11T03:15:46;4.60;72.70
20487;DHT22;10402;49.012;8.370;2023-03-11T03:18:12;4.60;72.60
20487;DHT22;10402;49.012;8.370;2023-03-11T03:20:37;4.60;72.70
20487;DHT22;10402;49.012;8.370;2023-03-11T03:23:03;4.50;72.70
20487;DHT22;10402;49.012;8.370;2023-03-11T03:25:29;4.50;72.80
20487;DHT22;10402;49.012;8.370;2023-03-11T03:27:54;4.40;73.00
20487;DHT22;10402;49.012;8.370;2023-03-11T03:30:20;4.40;73.00
20487;DHT22;10402;49.012;8.370;2023-03-11T03:32:45;4.30;72.90
20487;DHT22;10402;49.012;8.370;2023-03-11T03:35:11;4.20;72.90
20487;DHT22;10402;49.012;8.370;2023-03-11T03:37:37;4.20;73.00
20487;DHT22;10402;49.012;8.370;2023-03-11T03:40:04;4.20;73.20
20487;DHT22;10402;49.012;8.370;2023-03-11T03:42:36;4.20;73.30
20487;DHT22;10402;49.012;8.370;2023-03-11T03:45:04;4.20;73.30
20487;DHT22;10402;49.012;8.370;2023-03-11T03:47:32;4.20;73.10
20487;DHT22;10402;49.012;8.370;2023-03-11T03:49:58;4.30;73.20
20487;DHT22;10402;49.012;8.370;2023-03-11T03:52:23;4.20;73.00
20487;DHT22;10402;49.012;8.370;2023-03-11T03:54:49;4.20;73.20
20487;DHT22;10402;49.012;8.370;2023-03-11T03:57:14;4.20;73.20
20487;DHT22;10402;49.012;8.370;2023-03-11T03:59:40;4.20;73.10
20487;DHT22;10402;49.012;8.370;2023-03-11T04:02:05;4.20;74.00
20487;DHT22;10402;49.012;8.370;2023-03-11T04:04:31;4.20;73.30
20487;DHT22;10402;49.012;8.370;2023-03-11T04:06:57;4.20;73.40
20487;DHT22;10402;49.012;8.370;2023-03-11T04:09:22;4.20;73.50
20487;DHT22;10402;49.012;8.370;2023-03-11T04:11:48;4.10;73.50
20487;DHT22;10402;49.012;8.370;2023-03-11T04:14:14;4.10;73.60
20487;DHT22;10402;49.012;8.370;2023-03-11T04:16:39;4.10;73.70
20487;DHT22;10402;49.012;8.370;2023-03-11T04:19:05;4.10;73.70
20487;DHT22;10402;49.012;8.370;2023-03-11T04:21:31;4.10;73.80
20487;DHT22;10402;49.012;8.370;2023-03-11T04:23:57;4.00;73.80
20487;DHT22;10402;49.012;8.370;2023-03-11T04:26:23;4.00;73.90
20487;DHT22;10402;49.012;8.370;2023-03-11T04:28:48;4.00;74.00
20487;DHT22;10402;49.012;8.370;2023-03-11T04:31:14;4.00;74.00
20487;DHT22;10402;49.012;8.370;2023-03-11T04:33:39;3.90;74.10
20487;DHT22;10402;49.012;8.370;2023-03-11T04:36:06;3.90;74.20
20487;DHT22;10402;49.012;8.370;2023-03-11T04:38:33;3.90;74.30
20487;DHT22;10402;49.012;8.370;2023-03-11T04:41:02;3.90;74.40
20487;DHT22;10402;49.012;8.370;2023-03-11T04:43:28;3.90;74.40
20487;DHT22;10402;49.012;8.370;2023-03-11T04:45:54;3.80;74.30
20487;DHT22;10402;49.012;8.370;2023-03-11T04:48:19;3.80;74.30
20487;DHT22;10402;49.012;8.370;2023-03-11T04:50:45;3.80;74.30
20487;DHT22;10402;49.012;8.370;2023-03-11T04:53:11;3.80;74.30
20487;DHT22;10402;49.012;8.370;2023-03-11T04:55:36;3.80;74.30
20487;DHT22;10402;49.012;8.370;2023-03-11T04:58:02;3.80;74.30
20487;DHT22;10402;49.012;8.370;2023-03-11T05:00:28;3.70;74.40
20487;DHT22;10402;49.012;8.370;2023-03-11T05:02:53;3.70;74.70
20487;DHT22;10402;49.012;8.370;2023-03-11T05:05:19;3.70;74.70
20487;DHT22;10402;49.012;8.370;2023-03-11T05:07:45;3.70;74.90
20487;DHT22;10402;49.012;8.370;2023-03-11T05:10:11;3.70;74.90
20487;DHT22;10402;49.012;8.370;2023-03-11T05:12:37;3.70;74.80
20487;DHT22;10402;49.012;8.370;2023-03-11T05:15:03;3.70;74.80
20487;DHT22;10402;49.012;8.370;2023-03-11T05:17:28;3.60;74.80
20487;DHT22;10402;49.012;8.370;2023-03-11T05:19:54;3.60;74.90
20487;DHT22;10402;49.012;8.370;2023-03-11T05:22:20;3.50;74.90
20487;DHT22;10402;49.012;8.370;2023-03-11T05:24:46;3.50;75.10
20487;DHT22;10402;49.012;8.370;2023-03-11T05:27:13;3.40;75.20
20487;DHT22;10402;49.012;8.370;2023-03-11T05:29:42;3.40;75.40
20487;DHT22;10402;49.012;8.370;2023-03-11T05:32:08;3.40;75.40
20487;DHT22;10402;49.012;8.370;2023-03-11T05:34:33;3.40;75.40
20487;DHT22;10402;49.012;8.370;2023-03-11T05:36:59;3.40;75.50
20487;DHT22;10402;49.012;8.370;2023-03-11T05:39:26;3.40;75.60
20487;DHT22;10402;49.012;8.370;2023-03-11T05:41:51;3.40;75.70
20487;DHT22;10402;49.012;8.370;2023-03-11T05:44:17;3.40;75.60
20487;DHT22;10402;49.012;8.370;2023-03-11T05:46:42;3.30;75.70
20487;DHT22;10402;49.012;8.370;2023-03-11T05:49:08;3.30;75.70
20487;DHT22;10402;49.012;8.370;2023-03-11T05:51:33;3.30;75.70
20487;DHT22;10402;49.012;8.370;2023-03-11T05:53:59;3.30;75.70
20487;DHT22;10402;49.012;8.370;2023-03-11T05:56:25;3.30;75.70
20487;DHT22;10402;49.012;8.370;2023-03-11T05:58:50;3.30;75.70
20487;DHT22;10402;49.012;8.370;2023-03-11T06:01:17;3.30;75.70
20487;DHT22;10402;49.012;8.370;2023-03-11T06:03:43;3.20;75.70
20487;DHT22;10402;49.012;8.370;2023-03-11T06:06:10;3.20;76.00
20487;DHT22;10402;49.012;8.370;2023-03-11T06:08:36;3.20;76.00
20487;DHT22;10402;49.012;8.370;2023-03-11T06:11:09;3.20;76.00
20487;DHT22;10402;49.012;8.370;2023-03-11T06:13:36;3.20;76.00
20487;DHT22;10402;49.012;8.370;2023-03-11T06:16:02;3.20;76.00
20487;DHT22;10402;49.012;8.370;2023-03-11T06:18:28;3.20;76.00
20487;DHT22;10402;49.012;8.370;2023-03-11T06:20:57;3.20;76.10
20487;DHT22;10402;49.012;8.370;2023-03-11T06:23:23;3.20;75.90
20487;DHT22;10402;49.012;8.370;2023-03-11T06:28:21;3.20;76.30
20487;DHT22;10402;49.012;8.370;2023-03-11T06:30:46;3.20;76.30
20487;DHT22;10402;49.012;8.370;2023-03-11T06:33:12;3.20;76.40
20487;DHT22;10402;49.012;8.370;2023-03-11T06:35:39;3.20;76.30
20487;DHT22;10402;49.012;8.370;2023-03-11T06:38:05;3.30;76.30
20487;DHT22;10402;49.012;8.370;2023-03-11T06:40:31;3.30;76.20
20487;DHT22;10402;49.012;8.370;2023-03-11T06:42:56;3.30;76.30
20487;DHT22;10402;49.012;8.370;2023-03-11T06:45:22;3.30;76.30
20487;DHT22;10402;49.012;8.370;2023-03-11T06:47:47;3.40;76.40
20487;DHT22;10402;49.012;8.370;2023-03-11T06:50:13;3.30;76.20
20487;DHT22;10402;49.012;8.370;2023-03-11T06:52:38;3.40;76.40
20487;DHT22;10402;49.012;8.370;2023-03-11T06:55:04;3.40;76.50
20487;DHT22;10402;49.012;8.370;2023-03-11T06:57:30;3.40;76.40
20487;DHT22;10402;49.012;8.370;2023-03-11T06:59:55;3.50;76.60
20487;DHT22;10402;49.012;8.370;2023-03-11T07:02:21;3.60;76.60
20487;DHT22;10402;49.012;8.370;2023-03-11T07:04:50;3.60;76.60
20487;DHT22;10402;49.012;8.370;2023-03-11T07:07:15;3.70;76.50
20487;DHT22;10402;49.012;8.370;2023-03-11T07:09:41;3.70;76.10
20487;DHT22;10402;49.012;8.370;2023-03-11T07:12:08;3.70;76.10
20487;DHT22;10402;49.012;8.370;2023-03-11T07:14:33;3.70;76.30
20487;DHT22;10402;49.012;8.370;2023-03-11T07:16:59;3.70;76.40
20487;DHT22;10402;49.012;8.370;2023-03-11T07:19:24;3.70;76.30
20487;DHT22;10402;49.012;8.370;2023-03-11T07:21:50;3.80;76.40
20487;DHT22;10402;49.012;8.370;2023-03-11T07:24:16;3.80;76.50
20487;DHT22;10402;49.012;8.370;2023-03-11T07:29:09;3.80;76.50
20487;DHT22;10402;49.012;8.370;2023-03-11T07:31:36;3.90;76.50
20487;DHT22;10402;49.012;8.370;2023-03-11T07:34:04;3.90;76.40
20487;DHT22;10402;49.012;8.370;2023-03-11T07:36:30;4.00;76.50
20487;DHT22;10402;49.012;8.370;2023-03-11T07:39:05;4.00;77.20
20487;DHT22;10402;49.012;8.370;2023-03-11T07:41:33;4.10;76.50
20487;DHT22;10402;49.012;8.370;2023-03-11T07:44:00;4.10;76.50
20487;DHT22;10402;49.012;8.370;2023-03-11T07:46:28;4.10;76.40
20487;DHT22;10402;49.012;8.370;2023-03-11T07:48:54;4.20;76.40
20487;DHT22;10402;49.012;8.370;2023-03-11T07:51:23;4.20;76.20
20487;DHT22;10402;49.012;8.370;2023-03-11T07:53:50;4.30;76.20
20487;DHT22;10402;49.012;8.370;2023-03-11T07:56:16;4.30;76.10
20487;DHT22;10402;49.012;8.370;2023-03-11T07:58:42;4.40;76.00
20487;DHT22;10402;49.012;8.370;2023-03-11T08:01:11;4.40;75.90
20487;DHT22;10402;49.012;8.370;2023-03-11T08:03:37;4.40;75.80
20487;DHT22;10402;49.012;8.370;2023-03-11T08:06:21;4.50;75.70
20487;DHT22;10402;49.012;8.370;2023-03-11T08:08:48;4.50;75.40
20487;DHT22;10402;49.012;8.370;2023-03-11T08:11:14;4.40;74.90
20487;DHT22;10402;49.012;8.370;2023-03-11T08:13:41;4.40;74.90
20487;DHT22;10402;49.012;8.370;2023-03-11T08:16:08;4.40;75.20
20487;DHT22;10402;49.012;8.370;2023-03-11T08:18:34;4.40;74.90
20487;DHT22;10402;49.012;8.370;2023-03-11T08:21:09;4.40;74.90
20487;DHT22;10402;49.012;8.370;2023-03-11T08:23:35;4.40;74.90
20487;DHT22;10402;49.012;8.370;2023-03-11T08:26:05;4.40;74.90
20487;DHT22;10402;49.012;8.370;2023-03-11T08:28:31;4.50;75.00
20487;DHT22;10402;49.012;8.370;2023-03-11T08:30:57;4.50;74.70
20487;DHT22;10402;49.012;8.370;2023-03-11T08:33:22;4.60;74.50
20487;DHT22;10402;49.012;8.370;2023-03-11T08:35:48;4.60;74.60
20487;DHT22;10402;49.012;8.370;2023-03-11T08:38:13;4.50;73.90
20487;DHT22;10402;49.012;8.370;2023-03-11T08:40:39;4.40;74.10
20487;DHT22;10402;49.012;8.370;2023-03-11T08:43:04;4.40;74.20
20487;DHT22;10402;49.012;8.370;2023-03-11T08:45:30;4.30;73.70
20487;DHT22;10402;49.012;8.370;2023-03-11T08:47:56;4.30;73.70
20487;DHT22;10402;49.012;8.370;2023-03-11T08:50:22;4.30;73.90
20487;DHT22;10402;49.012;8.370;2023-03-11T08:52:48;4.40;73.60
20487;DHT22;10402;49.012;8.370;2023-03-11T08:55:15;4.40;73.10
20487;DHT22;10402;49.012;8.370;2023-03-11T08:57:43;4.40;73.00
20487;DHT22;10402;49.012;8.370;2023-03-11T09:00:09;4.40;73.00
20487;DHT22;10402;49.012;8.370;2023-03-11T09:02:36;4.50;73.10
20487;DHT22;10402;49.012;8.370;2023-03-11T09:05:02;4.50;72.80
20487;DHT22;10402;49.012;8.370;2023-03-11T09:07:28;4.50;73.00
20487;DHT22;10402;49.012;8.370;2023-03-11T09:09:53;4.60;73.10
20487;DHT22;10402;49.012;8.370;2023-03-11T09:12:19;4.70;72.90
20487;DHT22;10402;49.012;8.370;2023-03-11T09:14:45;4.80;72.60
20487;DHT22;10402;49.012;8.370;2023-03-11T09:17:10;4.90;72.50
20487;DHT22;10402;49.012;8.370;2023-03-11T09:19:37;4.90;72.30
20487;DHT22;10402;49.012;8.370;2023-03-11T09:22:03;5.00;72.30
20487;DHT22;10402;49.012;8.370;2023-03-11T09:24:32;5.10;72.10
20487;DHT22;10402;49.012;8.370;2023-03-11T09:26:58;5.10;71.70
20487;DHT22;10402;49.012;8.370;2023-03-11T09:29:23;5.20;71.70
20487;DHT22;10402;49.012;8.370;2023-03-11T09:31:49;5.20;71.50
20487;DHT22;10402;49.012;8.370;2023-03-11T09:34:14;5.30;71.50
20487;DHT22;10402;49.012;8.370;2023-03-11T09:36:41;5.30;71.40
20487;DHT22;10402;49.012;8.370;2023-03-11T09:39:06;5.40;71.20
20487;DHT22;10402;49.012;8.370;2023-03-11T09:41:50;5.50;71.00
20487;DHT22;10402;49.012;8.370;2023-03-11T09:44:22;5.50;70.30
20487;DHT22;10402;49.012;8.370;2023-03-11T09:49:41;5.70;70.30
20487;DHT22;10402;49.012;8.370;2023-03-11T09:52:15;5.70;69.70
20487;DHT22;10402;49.012;8.370;2023-03-11T09:54:49;5.80;69.60
20487;DHT22;10402;49.012;8.370;2023-03-11T09:57:33;5.90;69.50
20487;DHT22;10402;49.012;8.370;2023-03-11T10:00:03;5.90;69.10
20487;DHT22;10402;49.012;8.370;2023-03-11T10:02:29;6.00;69.20
20487;DHT22;10402;49.012;8.370;2023-03-11T10:07:30;6.20;68.80
20487;DHT22;10402;49.012;8.370;2023-03-11T10:09:58;6.30;68.80
20487;DHT22;10402;49.012;8.370;2023-03-11T10:21:05;6.60;67.90
20487;DHT22;10402;49.012;8.370;2023-03-11T10:24:00;6.50;67.50
20487;DHT22;10402;49.012;8.370;2023-03-11T10:26:51;6.50;67.40
20487;DHT22;10402;49.012;8.370;2023-03-11T10:29:31;6.60;68.10
20487;DHT22;10402;49.012;8.370;2023-03-11T10:32:05;6.60;66.90
20487;DHT22;10402;49.012;8.370;2023-03-11T10:37:28;6.60;66.60
20487;DHT22;10402;49.012;8.370;2023-03-11T10:40:03;6.70;66.60
20487;DHT22;10402;49.012;8.370;2023-03-11T10:42:32;6.80;65.80
20487;DHT22;10402;49.012;8.370;2023-03-11T10:44:59;6.80;65.80
20487;DHT22;10402;49.012;8.370;2023-03-11T10:47:25;6.80;65.40
20487;DHT22;10402;49.012;8.370;2023-03-11T10:49:51;6.80;65.10
20487;DHT22;10402;49.012;8.370;2023-03-11T10:52:17;6.90;65.00
20487;DHT22;10402;49.012;8.370;2023-03-11T10:54:45;6.90;64.60
20487;DHT22;10402;49.012;8.370;2023-03-11T10:57:34;7.00;64.00
20487;DHT22;10402;49.012;8.370;2023-03-11T11:00:02;6.90;63.30
20487;DHT22;10402;49.012;8.370;2023-03-11T11:02:50;6.80;64.30
20487;DHT22;10402;49.012;8.370;2023-03-11T11:07:43;6.80;63.80
20487;DHT22;10402;49.012;8.370;2023-03-11T11:10:18;6.80;63.60
20487;DHT22;10402;49.012;8.370;2023-03-11T11:13:22;6.90;63.20
20487;DHT22;10402;49.012;8.370;2023-03-11T11:15:55;7.00;63.30
20487;DHT22;10402;49.012;8.370;2023-03-11T11:18:26;7.20;63.30
20487;DHT22;10402;49.012;8.370;2023-03-11T11:26:04;7.40;62.50
20487;DHT22;10402;49.012;8.370;2023-03-11T11:28:31;7.40;62.20
20487;DHT22;10402;49.012;8.370;2023-03-11T11:30:58;7.40;62.10
20487;DHT22;10402;49.012;8.370;2023-03-11T11:36:01;7.20;60.40
20487;DHT22;10402;49.012;8.370;2023-03-11T11:38:28;7.00;60.90
20487;DHT22;10402;49.012;8.370;2023-03-11T11:40:56;7.10;61.50
20487;DHT22;10402;49.012;8.370;2023-03-11T11:43:48;7.00;59.70
20487;DHT22;10402;49.012;8.370;2023-03-11T11:46:32;6.70;59.90
20487;DHT22;10402;49.012;8.370;2023-03-11T11:49:23;6.60;59.80
20487;DHT22;10402;49.012;8.370;2023-03-11T11:51:58;6.60;60.70
20487;DHT22;10402;49.012;8.370;2023-03-11T11:54:32;6.60;60.60
20487;DHT22;10402;49.012;8.370;2023-03-11T11:57:01;6.60;60.60
20487;DHT22;10402;49.012;8.370;2023-03-11T11:59:34;6.60;60.70
20487;DHT22;10402;49.012;8.370;2023-03-11T12:02:18;6.50;60.40
20487;DHT22;10402;49.012;8.370;2023-03-11T12:05:01;6.50;60.50
20487;DHT22;10402;49.012;8.370;2023-03-11T12:07:46;6.40;59.70
20487;DHT22;10402;49.012;8.370;2023-03-11T12:18:54;6.50;59.70
20487;DHT22;10402;49.012;8.370;2023-03-11T12:22:11;6.50;59.10
20487;DHT22;10402;49.012;8.370;2023-03-11T12:24:38;6.60;59.20
20487;DHT22;10402;49.012;8.370;2023-03-11T12:27:33;6.70;59.20
20487;DHT22;10402;49.012;8.370;2023-03-11T12:30:04;6.80;59.10
20487;DHT22;10402;49.012;8.370;2023-03-11T12:32:43;6.90;59.10
20487;DHT22;10402;49.012;8.370;2023-03-11T12:35:26;7.00;59.00
20487;DHT22;10402;49.012;8.370;2023-03-11T12:38:23;7.10;58.70
20487;DHT22;10402;49.012;8.370;2023-03-11T12:41:04;7.20;58.70
20487;DHT22;10402;49.012;8.370;2023-03-11T12:45:58;7.40;58.60
20487;DHT22;10402;49.012;8.370;2023-03-11T12:48:32;7.40;58.20
20487;DHT22;10402;49.012;8.370;2023-03-11T12:50:58;7.50;58.20
20487;DHT22;10402;49.012;8.370;2023-03-11T12:53:46;7.50;57.80
20487;DHT22;10402;49.012;8.370;2023-03-11T12:59:00;7.50;57.50
20487;DHT22;10402;49.012;8.370;2023-03-11T13:04:24;7.40;56.90
20487;DHT22;10402;49.012;8.370;2023-03-11T13:07:10;7.30;57.00
20487;DHT22;10402;49.012;8.370;2023-03-11T13:09:41;7.30;57.10
20487;DHT22;10402;49.012;8.370;2023-03-11T13:12:39;7.30;57.30
20487;DHT22;10402;49.012;8.370;2023-03-11T13:15:35;7.30;57.40
20487;DHT22;10402;49.012;8.370;2023-03-11T13:18:02;7.30;56.60
20487;DHT22;10402;49.012;8.370;2023-03-11T13:20:49;7.40;56.70
20487;DHT22;10402;49.012;8.370;2023-03-11T13:23:29;7.50;57.00
20487;DHT22;10402;49.012;8.370;2023-03-11T13:26:05;7.60;56.90
20487;DHT22;10402;49.012;8.370;2023-03-11T13:28:48;7.60;56.80
20487;DHT22;10402;49.012;8.370;2023-03-11T13:34:24;7.70;56.40
20487;DHT22;10402;49.012;8.370;2023-03-11T13:36:58;7.70;56.40
20487;DHT22;10402;49.012;8.370;2023-03-11T13:40:27;7.60;56.00
20487;DHT22;10402;49.012;8.370;2023-03-11T13:42:56;7.60;56.50
20487;DHT22;10402;49.012;8.370;2023-03-11T13:45:28;7.60;56.10
20487;DHT22;10402;49.012;8.370;2023-03-11T13:48:13;7.60;56.00
20487;DHT22;10402;49.012;8.370;2023-03-11T13:51:04;7.60;56.00
20487;DHT22;10402;49.012;8.370;2023-03-11T13:53:37;7.50;55.90
20487;DHT22;10402;49.012;8.370;2023-03-11T13:56:04;7.50;55.90
20487;DHT22;10402;49.012;8.370;2023-03-11T13:58:30;7.50;56.00
20487;DHT22;10402;49.012;8.370;2023-03-11T14:00:59;7.60;56.00
20487;DHT22;10402;49.012;8.370;2023-03-11T14:03:28;7.50;55.90
20487;DHT22;10402;49.012;8.370;2023-03-11T14:06:05;7.60;56.20
20487;DHT22;10402;49.012;8.370;2023-03-11T14:08:37;7.60;56.30
20487;DHT22;10402;49.012;8.370;2023-03-11T14:11:15;7.70;56.10
20487;DHT22;10402;49.012;8.370;2023-03-11T14:13:41;7.70;56.30
20487;DHT22;10402;49.012;8.370;2023-03-11T14:16:17;7.70;56.10
20487;DHT22;10402;49.012;8.370;2023-03-11T14:19:04;7.80;56.10
20487;DHT22;10402;49.012;8.370;2023-03-11T14:21:33;7.80;56.10
20487;DHT22;10402;49.012;8.370;2023-03-11T14:23:58;7.90;56.00
20487;DHT22;10402;49.012;8.370;2023-03-11T14:26:29;7.90;56.00
20487;DHT22;10402;49.012;8.370;2023-03-11T14:29:01;8.00;55.80
20487;DHT22;10402;49.012;8.370;2023-03-11T14:31:34;8.10;55.90
20487;DHT22;10402;49.012;8.370;2023-03-11T14:34:12;8.10;56.30
20487;DHT22;10402;49.012;8.370;2023-03-11T14:36:46;8.10;55.60
20487;DHT22;10402;49.012;8.370;2023-03-11T14:39:38;8.10;55.80
20487;DHT22;10402;49.012;8.370;2023-03-11T14:44:40;8.20;55.80
20487;DHT22;10402;49.012;8.370;2023-03-11T14:47:30;8.10;55.50
20487;DHT22;10402;49.012;8.370;2023-03-11T14:49:56;8.10;55.60
20487;DHT22;10402;49.012;8.370;2023-03-11T14:55:05;8.00;55.60
20487;DHT22;10402;49.012;8.370;2023-03-11T14:57:39;8.00;55.50
20487;DHT22;10402;49.012;8.370;2023-03-11T15:00:23;8.00;55.40
20487;DHT22;10402;49.012;8.370;2023-03-11T15:05:51;8.00;55.40
20487;DHT22;10402;49.012;8.370;2023-03-11T15:08:20;8.00;55.20
20487;DHT22;10402;49.012;8.370;2023-03-11T15:13:37;7.90;55.20
20487;DHT22;10402;49.012;8.370;2023-03-11T15:16:05;7.90;54.70
20487;DHT22;10402;49.012;8.370;2023-03-11T15:18:34;7.90;55.10
20487;DHT22;10402;49.012;8.370;2023-03-11T15:21:11;7.90;55.20
20487;DHT22;10402;49.012;8.370;2023-03-11T15:23:38;7.90;55.10
20487;DHT22;10402;49.012;8.370;2023-03-11T15:26:04;8.00;55.00
20487;DHT22;10402;49.012;8.370;2023-03-11T15:28:33;7.90;54.60
20487;DHT22;10402;49.012;8.370;2023-03-11T15:33:44;7.80;54.90
20487;DHT22;10402;49.012;8.370;2023-03-11T15:36:30;7.80;54.90
20487;DHT22;10402;49.012;8.370;2023-03-11T15:39:11;7.80;55.00
20487;DHT22;10402;49.012;8.370;2023-03-11T15:41:38;7.80;55.20
20487;DHT22;10402;49.012;8.370;2023-03-11T15:44:04;7.90;55.30
20487;DHT22;10402;49.012;8.370;2023-03-11T15:46:33;7.90;55.20
20487;DHT22;10402;49.012;8.370;2023-03-11T15:48:58;8.00;55.20
20487;DHT22;10402;49.012;8.370;2023-03-11T15:51:24;8.00;55.10
20487;DHT22;10402;49.012;8.370;2023-03-11T15:53:49;8.00;55.10
20487;DHT22;10402;49.012;8.370;2023-03-11T15:56:21;8.00;55.00
20487;DHT22;10402;49.012;8.370;2023-03-11T15:58:48;8.00;55.00
20487;DHT22;10402;49.012;8.370;2023-03-11T16:01:13;8.00;55.00
20487;DHT22;10402;49.012;8.370;2023-03-11T16:03:39;8.00;55.00
20487;DHT22;10402;49.012;8.370;2023-03-11T16:06:05;8.00;55.10
20487;DHT22;10402;49.012;8.370;2023-03-11T16:08:30;8.00;55.00
20487;DHT22;10402;49.012;8.370;2023-03-11T16:10:56;8.00;55.00
20487;DHT22;10402;49.012;8.370;2023-03-11T16:13:22;8.00;55.00
20487;DHT22;10402;49.012;8.370;2023-03-11T16:15:48;8.10;55.00
20487;DHT22;10402;49.012;8.370;2023-03-11T16:18:13;8.10;55.00
20487;DHT22;10402;49.012;8.370;2023-03-11T16:20:51;8.10;54.90
20487;DHT22;10402;49.012;8.370;2023-03-11T16:23:25;8.00;54.90
20487;DHT22;10402;49.012;8.370;2023-03-11T16:25:59;8.00;55.00
20487;DHT22;10402;49.012;8.370;2023-03-11T16:28:26;8.00;55.10
20487;DHT22;10402;49.012;8.370;2023-03-11T16:30:51;8.00;55.00
20487;DHT22;10402;49.012;8.370;2023-03-11T16:33:17;8.00;55.00
20487;DHT22;10402;49.012;8.370;2023-03-11T16:35:43;7.90;55.00
20487;DHT22;10402;49.012;8.370;2023-03-11T16:38:08;7.90;54.90
20487;DHT22;10402;49.012;8.370;2023-03-11T16:40:35;7.90;55.00
20487;DHT22;10402;49.012;8.370;2023-03-11T16:43:06;7.90;55.20
20487;DHT22;10402;49.012;8.370;2023-03-11T16:45:32;7.90;55.30
20487;DHT22;10402;49.012;8.370;2023-03-11T16:47:58;7.90;55.30
20487;DHT22;10402;49.012;8.370;2023-03-11T16:50:24;7.90;55.30
20487;DHT22;10402;49.012;8.370;2023-03-11T16:52:51;7.90;55.40
20487;DHT22;10402;49.012;8.370;2023-03-11T16:55:17;7.90;55.30
20487;DHT22;10402;49.012;8.370;2023-03-11T16:57:42;7.90;55.10
20487;DHT22;10402;49.012;8.370;2023-03-11T17:00:09;7.80;54.90
20487;DHT22;10402;49.012;8.370;2023-03-11T17:02:36;7.80;54.90
20487;DHT22;10402;49.012;8.370;2023-03-11T17:05:02;7.70;54.60
20487;DHT22;10402;49.012;8.370;2023-03-11T17:07:29;7.60;54.40